createdAt,value
2023-03-20T00:01:30.891Z,23.85
2023-03-20T00:04:01.097Z,23.86
2023-03-20T00:06:30.993Z,23.84
2023-03-20T00:09:09.044Z,23.84
2023-03-20T00:11:50.330Z,23.83
2023-03-20T00:14:20.506Z,23.81
2023-03-20T00:16:51.769Z,23.80
2023-03-20T00:19:24.874Z,23.79
2023-03-20T00:21:55.987Z,23.80
2023-03-20T00:24:27.259Z,23.74
2023-03-20T00:27:03.579Z,23.76
2023-03-20T00:29:33.594Z,23.72
2023-03-20T00:32:03.440Z,23.72
2023-03-20T00:34:33.330Z,23.73
2023-03-20T00:37:03.527Z,23.71
2023-03-20T00:39:36.176Z,23.70
2023-03-20T00:42:25.669Z,23.67
2023-03-20T00:45:45.723Z,23.66
2023-03-20T00:48:40.015Z,23.65
2023-03-20T00:52:17.227Z,23.62
2023-03-20T00:54:35.909Z,23.60
2023-03-20T00:57:37.500Z,23.57
2023-03-20T01:00:38.717Z,23.56
2023-03-20T01:03:43.443Z,23.54
2023-03-20T01:06:27.415Z,23.52
2023-03-20T01:09:18.347Z,23.49
2023-03-20T01:12:05.629Z,23.47
2023-03-20T01:14:35.785Z,23.44
2023-03-20T01:17:05.626Z,23.42
2023-03-20T01:19:35.539Z,23.30
2023-03-20T01:25:17.083Z,23.38
2023-03-20T01:27:52.271Z,23.37
2023-03-20T01:30:26.233Z,23.35
2023-03-20T01:33:01.803Z,23.34
2023-03-20T01:35:33.118Z,23.33
2023-03-20T01:38:03.140Z,23.32
2023-03-20T01:40:39.704Z,23.29
2023-03-20T01:43:17.923Z,23.26
2023-03-20T01:46:00.968Z,23.16
2023-03-20T01:48:40.658Z,23.22
2023-03-20T01:51:45.384Z,23.22
2023-03-20T01:54:20.140Z,23.20
2023-03-20T01:57:00.495Z,23.17
2023-03-20T01:59:38.077Z,23.16
2023-03-20T02:02:09.133Z,23.14
2023-03-20T02:04:42.234Z,23.13
2023-03-20T02:07:33.125Z,23.10
2023-03-20T02:10:15.261Z,23.06
2023-03-20T02:12:51.881Z,23.06
2023-03-20T02:15:29.426Z,23.03
2023-03-20T02:17:59.692Z,23.00
2023-03-20T02:20:35.412Z,22.99
2023-03-20T02:23:38.450Z,22.99
2023-03-20T02:26:15.133Z,22.99
2023-03-20T02:29:04.546Z,22.98
2023-03-20T02:38:17.377Z,22.88
2023-03-20T02:41:01.823Z,22.84
2023-03-20T02:43:55.123Z,22.80
2023-03-20T02:47:00.715Z,22.76
2023-03-20T02:53:13.970Z,22.70
2023-03-20T02:55:46.268Z,22.75
2023-03-20T02:58:24.137Z,22.75
2023-03-20T03:01:03.037Z,22.77
2023-03-20T03:03:46.735Z,22.78
2023-03-20T03:09:38.421Z,22.75
2023-03-20T03:18:38.105Z,22.75
2023-03-20T03:21:16.426Z,22.74
2023-03-20T03:24:10.927Z,22.74
2023-03-20T03:26:42.810Z,22.74
2023-03-20T03:29:17.832Z,22.73
2023-03-20T03:31:49.022Z,22.72
2023-03-20T03:37:28.593Z,22.72
2023-03-20T03:43:16.670Z,22.72
2023-03-20T03:46:05.689Z,22.70
2023-03-20T03:48:45.424Z,22.71
2023-03-20T03:54:56.848Z,22.72
2023-03-20T03:57:45.582Z,22.73
2023-03-20T04:00:22.440Z,22.75
2023-03-20T04:02:53.698Z,22.71
2023-03-20T04:05:25.488Z,22.74
2023-03-20T04:08:00.591Z,22.72
2023-03-20T04:10:32.787Z,22.71
2023-03-20T04:13:03.853Z,22.70
2023-03-20T04:15:42.177Z,22.70
2023-03-20T04:18:18.347Z,22.55
2023-03-20T04:20:49.657Z,22.68
2023-03-20T04:23:20.829Z,22.67
2023-03-20T04:25:55.780Z,22.66
2023-03-20T04:28:25.486Z,22.61
2023-03-20T04:31:01.747Z,22.62
2023-03-20T04:36:20.939Z,22.59
2023-03-20T04:38:52.048Z,22.57
2023-03-20T04:41:51.457Z,22.55
2023-03-20T04:44:22.936Z,22.53
2023-03-20T04:47:00.316Z,22.50
2023-03-20T04:49:31.205Z,22.50
2023-03-20T04:52:01.764Z,22.47
2023-03-20T04:54:53.683Z,22.46
2023-03-20T04:57:24.392Z,22.42
2023-03-20T04:59:55.868Z,22.40
2023-03-20T05:02:27.613Z,22.38
2023-03-20T05:04:58.709Z,22.32
2023-03-20T05:07:29.822Z,22.34
2023-03-20T05:10:09.571Z,22.30
2023-03-20T05:12:58.822Z,22.29
2023-03-20T05:15:29.085Z,22.27
2023-03-20T05:18:00.998Z,22.24
2023-03-20T05:20:31.885Z,22.23
2023-03-20T05:23:06.370Z,22.19
2023-03-20T05:25:50.947Z,22.17
2023-03-20T05:28:33.978Z,22.11
2023-03-20T05:31:21.703Z,22.12
2023-03-20T05:34:20.954Z,22.08
2023-03-20T05:36:51.912Z,22.04
2023-03-20T05:39:23.673Z,21.97
2023-03-20T05:41:54.849Z,21.91
2023-03-20T05:44:39.149Z,21.95
2023-03-20T05:47:39.343Z,21.90
2023-03-20T05:50:11.167Z,21.88
2023-03-20T05:52:42.588Z,21.83
2023-03-20T05:55:14.915Z,21.82
2023-03-20T05:58:03.300Z,21.78
2023-03-20T06:00:35.549Z,21.73
2023-03-20T06:03:07.973Z,21.73
2023-03-20T06:05:39.051Z,21.68
2023-03-20T06:08:11.261Z,21.65
2023-03-20T06:10:43.856Z,21.62
2023-03-20T06:13:26.820Z,21.59
2023-03-20T06:16:05.904Z,21.57
2023-03-20T06:18:39.840Z,21.54
2023-03-20T06:21:11.964Z,21.51
2023-03-20T06:23:44.189Z,21.46
2023-03-20T06:26:16.614Z,21.41
2023-03-20T06:28:48.039Z,21.41
2023-03-20T06:31:19.076Z,21.41
2023-03-20T06:34:04.580Z,21.37
2023-03-20T06:36:35.573Z,21.35
2023-03-20T06:39:06.540Z,21.33
2023-03-20T06:41:37.814Z,21.30
2023-03-20T06:44:10.039Z,21.28
2023-03-20T06:46:41.211Z,21.26
2023-03-20T06:49:15.682Z,21.23
2023-03-20T06:51:46.197Z,21.18
2023-03-20T06:54:17.927Z,21.16
2023-03-20T06:56:51.363Z,21.14
2023-03-20T06:59:25.755Z,21.12
2023-03-20T07:01:56.818Z,21.10
2023-03-20T07:04:29.080Z,21.05
2023-03-20T07:07:12.979Z,21.07
2023-03-20T07:09:44.225Z,21.03
2023-03-20T07:12:20.194Z,21.00
2023-03-20T07:14:52.289Z,20.99
2023-03-20T07:17:23.925Z,20.95
2023-03-20T07:19:55.936Z,20.93
2023-03-20T07:22:31.851Z,20.90
2023-03-20T07:25:09.741Z,20.84
2023-03-20T07:27:41.317Z,20.87
2023-03-20T07:30:15.004Z,20.84
2023-03-20T07:32:47.983Z,20.77
2023-03-20T07:35:21.228Z,20.79
2023-03-20T07:37:53.096Z,20.75
2023-03-20T07:40:25.315Z,20.74
2023-03-20T07:42:56.696Z,20.72
2023-03-20T07:45:27.910Z,20.70
2023-03-20T07:47:58.408Z,20.68
2023-03-20T07:50:28.978Z,20.67
2023-03-20T07:53:04.474Z,20.65
2023-03-20T07:55:36.391Z,20.60
2023-03-20T07:58:21.184Z,20.59
2023-03-20T08:00:52.263Z,20.59
2023-03-20T08:03:24.123Z,20.58
2023-03-20T08:06:16.128Z,20.55
2023-03-20T08:08:48.219Z,20.52
2023-03-20T08:11:21.064Z,20.50
2023-03-20T08:13:54.515Z,20.51
2023-03-20T08:16:27.055Z,20.52
2023-03-20T08:18:59.263Z,20.55
2023-03-20T08:21:33.224Z,20.56
2023-03-20T08:24:04.532Z,20.58
2023-03-20T08:26:36.042Z,20.58
2023-03-20T08:29:08.551Z,20.61
2023-03-20T08:31:40.237Z,20.62
2023-03-20T08:36:54.303Z,20.63
2023-03-20T08:39:25.999Z,20.67
2023-03-20T08:41:58.399Z,20.68
2023-03-20T08:44:30.337Z,20.70
2023-03-20T08:50:23.588Z,20.73
2023-03-20T08:52:55.018Z,20.73
2023-03-20T08:55:28.681Z,20.76
2023-03-20T08:58:00.689Z,20.77
2023-03-20T09:00:32.276Z,20.75
2023-03-20T09:03:05.147Z,20.80
2023-03-20T09:05:38.802Z,20.82
2023-03-20T09:08:10.960Z,20.82
2023-03-20T09:10:44.652Z,20.81
2023-03-20T09:13:26.753Z,20.85
2023-03-20T09:15:50.404Z,20.84
2023-03-20T09:18:22.974Z,20.84
2023-03-20T09:20:54.293Z,20.81
2023-03-20T09:23:26.034Z,20.80
2023-03-20T09:25:57.041Z,20.76
2023-03-20T09:28:30.079Z,20.76
2023-03-20T09:31:01.346Z,20.75
2023-03-20T09:33:32.250Z,20.69
2023-03-20T09:36:05.002Z,20.70
2023-03-20T09:38:35.398Z,20.71
2023-03-20T09:41:05.825Z,20.73
2023-03-20T09:43:44.947Z,20.74
2023-03-20T09:46:48.858Z,20.77
2023-03-20T09:49:57.318Z,20.79
2023-03-20T09:52:46.733Z,20.80
2023-03-20T09:55:18.563Z,20.82
2023-03-20T09:57:56.812Z,20.83
2023-03-20T10:00:47.609Z,20.84
2023-03-20T10:03:23.323Z,20.83
2023-03-20T10:06:06.762Z,20.83
2023-03-20T10:08:37.624Z,20.83
2023-03-20T10:11:36.236Z,20.82
2023-03-20T10:14:39.317Z,20.81
2023-03-20T10:17:43.148Z,20.82
2023-03-20T10:20:27.927Z,20.80
2023-03-20T10:23:51.520Z,20.79
2023-03-20T10:26:25.656Z,20.78
2023-03-20T10:29:26.669Z,20.77
2023-03-20T10:32:19.942Z,20.76
2023-03-20T10:35:16.442Z,20.76
2023-03-20T10:41:31.872Z,20.76
2023-03-20T10:44:48.849Z,20.73
2023-03-20T10:47:20.509Z,20.71
2023-03-20T10:53:16.820Z,20.68
2023-03-20T10:56:40.319Z,20.67
2023-03-20T10:59:45.086Z,20.66
2023-03-20T11:05:32.675Z,20.69
2023-03-20T11:08:09.284Z,20.63
2023-03-20T11:16:37.577Z,20.65
2023-03-20T11:19:12.363Z,20.67
2023-03-20T11:21:49.050Z,20.69
2023-03-20T11:24:36.686Z,20.73
2023-03-20T11:27:12.814Z,20.77
2023-03-20T11:29:45.904Z,20.83
2023-03-20T11:32:30.342Z,20.88
2023-03-20T11:35:20.774Z,20.93
2023-03-20T11:38:08.299Z,20.99
2023-03-20T11:40:39.295Z,21.06
2023-03-20T11:43:24.099Z,21.15
2023-03-20T11:46:01.556Z,21.20
2023-03-20T11:48:42.994Z,21.28
2023-03-20T11:51:19.289Z,21.34
2023-03-20T11:54:08.275Z,21.39
2023-03-20T11:56:38.915Z,21.45
2023-03-20T12:02:36.535Z,21.60
2023-03-20T12:05:21.402Z,21.69
2023-03-20T12:08:10.861Z,21.73
2023-03-20T12:10:41.464Z,21.78
2023-03-20T12:13:31.657Z,21.83
2023-03-20T12:16:06.571Z,21.87
2023-03-20T12:18:42.518Z,21.93
2023-03-20T12:21:18.052Z,21.98
2023-03-20T12:24:06.871Z,22.02
2023-03-20T12:26:54.145Z,22.06
2023-03-20T12:29:32.392Z,22.09
2023-03-20T12:32:29.274Z,22.11
2023-03-20T12:35:11.064Z,22.17
2023-03-20T12:37:40.922Z,22.21
2023-03-20T12:40:13.741Z,22.26
2023-03-20T12:42:55.932Z,22.29
2023-03-20T12:45:44.712Z,22.31
2023-03-20T12:51:31.406Z,22.38
2023-03-20T12:54:15.878Z,22.41
2023-03-20T12:57:25.313Z,22.44
2023-03-20T13:00:00.715Z,22.48
2023-03-20T13:02:54.088Z,22.51
2023-03-20T13:05:29.410Z,22.50
2023-03-20T13:11:45.086Z,22.53
2023-03-20T13:14:59.992Z,22.57
2023-03-20T13:17:41.252Z,22.58
2023-03-20T13:29:43.409Z,22.63
2023-03-20T13:32:45.791Z,22.64
2023-03-20T13:35:30.985Z,22.66
2023-03-20T13:38:48.905Z,22.70
2023-03-20T13:40:37.990Z,22.73
2023-03-20T13:43:28.694Z,22.74
2023-03-20T13:46:08.220Z,22.73
2023-03-20T13:48:41.951Z,22.74
2023-03-20T13:51:18.386Z,22.75
2023-03-20T13:53:53.638Z,22.77
2023-03-20T13:56:39.476Z,22.82
2023-03-20T13:59:33.453Z,22.84
2023-03-20T14:02:42.056Z,22.86
2023-03-20T14:05:47.316Z,22.86
2023-03-20T14:08:55.822Z,22.87
2023-03-20T14:11:53.941Z,22.87
2023-03-20T14:14:54.021Z,22.90
2023-03-20T14:17:45.300Z,22.91
2023-03-20T14:23:53.656Z,22.94
2023-03-20T14:32:57.181Z,23.01
2023-03-20T14:36:02.673Z,22.88
2023-03-20T14:38:54.280Z,22.98
2023-03-20T14:41:41.053Z,23.01
2023-03-20T14:44:59.435Z,23.00
2023-03-20T14:48:23.885Z,22.99
2023-03-20T14:50:56.782Z,22.99
2023-03-20T14:54:06.045Z,22.98
2023-03-20T14:56:36.477Z,22.99
2023-03-20T14:59:07.240Z,23.00
2023-03-20T15:01:48.236Z,23.00
2023-03-20T15:04:24.330Z,22.98
2023-03-20T15:06:57.304Z,22.97
2023-03-20T15:09:27.226Z,22.94
2023-03-20T15:14:59.993Z,22.94
2023-03-20T15:17:53.944Z,22.94
2023-03-20T15:20:40.494Z,22.94
2023-03-20T15:23:14.356Z,22.92
2023-03-20T15:25:46.360Z,22.89
2023-03-20T15:28:24.371Z,22.89
2023-03-20T15:30:55.636Z,22.86
2023-03-20T15:33:30.548Z,22.87
2023-03-20T15:36:10.157Z,22.87
2023-03-20T15:38:44.746Z,22.89
2023-03-20T15:41:20.266Z,22.69
2023-03-20T15:43:50.864Z,22.86
2023-03-20T15:46:24.513Z,22.85
2023-03-20T15:48:56.636Z,22.84
2023-03-20T15:51:27.253Z,22.82
2023-03-20T15:54:05.369Z,22.81
2023-03-20T15:56:55.018Z,22.80
2023-03-20T15:59:53.827Z,22.81
2023-03-20T16:02:24.163Z,22.79
2023-03-20T16:05:00.158Z,22.79
2023-03-20T16:07:32.429Z,22.78
2023-03-20T16:10:02.605Z,22.78
2023-03-20T16:12:38.637Z,22.77
2023-03-20T16:15:19.289Z,22.78
2023-03-20T16:17:52.697Z,22.78
2023-03-20T16:20:23.232Z,22.78
2023-03-20T16:22:54.331Z,22.78
2023-03-20T16:25:24.283Z,22.79
2023-03-20T16:27:54.441Z,22.82
2023-03-20T16:30:26.906Z,22.82
2023-03-20T16:33:16.535Z,22.84
2023-03-20T16:36:00.684Z,22.84
2023-03-20T16:39:08.508Z,22.85
2023-03-20T16:41:55.551Z,22.87
2023-03-20T16:44:28.166Z,22.88
2023-03-20T16:47:02.944Z,22.89
2023-03-20T16:49:45.196Z,22.90
2023-03-20T16:52:15.555Z,22.91
2023-03-20T16:54:45.576Z,22.95
2023-03-20T16:57:35.680Z,22.97
2023-03-20T17:00:11.838Z,22.97
2023-03-20T17:03:11.877Z,22.99
2023-03-20T17:06:12.840Z,22.87
2023-03-20T17:08:57.884Z,22.84
2023-03-20T17:11:33.684Z,22.99
2023-03-20T17:14:05.038Z,23.00
2023-03-20T17:16:35.133Z,22.99
2023-03-20T17:19:10.231Z,23.00
2023-03-20T17:21:41.985Z,22.98
2023-03-20T17:24:20.620Z,23.00
2023-03-20T17:26:57.658Z,23.00
2023-03-20T17:29:27.622Z,23.03
2023-03-20T17:31:57.534Z,23.01
2023-03-20T17:34:27.741Z,23.00
2023-03-20T17:36:59.225Z,23.00
2023-03-20T17:39:29.203Z,22.99
2023-03-20T17:42:13.449Z,23.00
2023-03-20T17:44:43.486Z,22.99
2023-03-20T17:47:18.083Z,22.98
2023-03-20T17:49:48.493Z,22.97
2023-03-20T17:52:20.553Z,22.97
2023-03-20T17:54:50.583Z,22.96
2023-03-20T17:57:34.442Z,22.95
2023-03-20T18:00:08.227Z,22.96
2023-03-20T18:02:38.189Z,22.97
2023-03-20T18:05:08.724Z,22.97
2023-03-20T18:07:38.737Z,22.96
2023-03-20T18:10:09.127Z,22.96
2023-03-20T18:12:39.837Z,22.97
2023-03-20T18:15:14.061Z,22.96
2023-03-20T18:17:44.812Z,22.96
2023-03-20T18:20:20.655Z,22.97
2023-03-20T18:22:50.889Z,22.96
2023-03-20T18:25:23.044Z,22.96
2023-03-20T18:27:53.007Z,22.95
2023-03-20T18:30:35.060Z,22.95
2023-03-20T18:33:10.149Z,22.94
2023-03-20T18:35:40.209Z,22.94
2023-03-20T18:38:12.108Z,22.94
2023-03-20T18:40:43.384Z,22.94
2023-03-20T18:43:19.684Z,22.93
2023-03-20T18:45:50.078Z,22.92
2023-03-20T18:48:32.560Z,22.92
2023-03-20T18:51:20.576Z,22.89
2023-03-20T18:53:51.692Z,22.92
2023-03-20T18:56:23.692Z,22.93
2023-03-20T18:58:54.928Z,22.92
2023-03-20T19:01:26.500Z,22.91
2023-03-20T19:03:56.675Z,22.91
2023-03-20T19:06:26.768Z,22.91
2023-03-20T19:08:56.757Z,22.90
2023-03-20T19:11:27.200Z,22.89
2023-03-20T19:13:57.285Z,22.89
2023-03-20T19:16:51.828Z,22.89
2023-03-20T19:19:24.089Z,22.89
2023-03-20T19:22:28.493Z,22.85
2023-03-20T19:24:45.773Z,22.84
2023-03-20T19:30:44.482Z,22.84
2023-03-20T19:36:56.422Z,22.85
2023-03-20T19:40:08.186Z,22.85
2023-03-20T19:43:01.610Z,22.84
2023-03-20T19:46:07.763Z,22.84
2023-03-20T19:48:57.781Z,22.83
2023-03-20T19:51:47.687Z,22.83
2023-03-20T19:55:02.298Z,22.81
2023-03-20T20:03:56.078Z,22.85
2023-03-20T20:06:47.702Z,22.79
2023-03-20T20:10:06.641Z,22.79
2023-03-20T20:13:19.082Z,22.83
2023-03-20T20:15:54.740Z,22.85
2023-03-20T20:18:40.883Z,22.86
2023-03-20T20:23:43.334Z,22.91
2023-03-20T20:26:13.442Z,22.92
2023-03-20T20:28:43.327Z,22.95
2023-03-20T20:31:14.049Z,22.97
2023-03-20T20:34:10.004Z,22.98
2023-03-20T20:39:57.546Z,23.00
2023-03-20T20:42:53.506Z,23.04
2023-03-20T20:45:45.433Z,23.05
2023-03-20T20:51:04.622Z,23.05
2023-03-20T20:53:34.457Z,23.06
2023-03-20T20:56:04.463Z,23.04
2023-03-20T20:58:34.869Z,23.06
2023-03-20T21:01:22.418Z,23.06
2023-03-20T21:04:29.050Z,23.05
2023-03-20T21:07:10.347Z,23.08
2023-03-20T21:10:04.451Z,23.09
2023-03-20T21:13:04.507Z,23.10
2023-03-20T21:15:50.132Z,23.09
2023-03-20T21:18:30.998Z,23.09
2023-03-20T21:21:10.629Z,23.06
2023-03-20T21:23:41.002Z,23.08
2023-03-20T21:26:11.233Z,23.07
2023-03-20T21:28:41.390Z,23.07
2023-03-20T21:31:25.546Z,23.06
2023-03-20T21:34:17.905Z,23.06
2023-03-20T21:40:29.289Z,23.05
2023-03-20T21:43:13.746Z,23.05
2023-03-20T21:46:45.239Z,23.05
2023-03-20T21:53:12.489Z,23.05
2023-03-20T22:01:58.346Z,23.00
2023-03-20T22:08:09.567Z,22.98
2023-03-20T22:20:03.602Z,22.95
2023-03-20T22:29:07.194Z,22.94
2023-03-20T22:38:12.680Z,22.90
2023-03-20T22:41:00.760Z,22.89
2023-03-20T22:46:39.985Z,22.93
2023-03-20T22:48:59.946Z,22.94
2023-03-20T22:51:40.938Z,22.94
2023-03-20T22:54:05.592Z,22.94
2023-03-20T22:56:35.621Z,22.96
2023-03-20T22:59:05.700Z,22.96
2023-03-20T23:01:35.652Z,22.96
2023-03-20T23:04:47.394Z,22.99
2023-03-20T23:07:16.150Z,23.00
2023-03-20T23:12:33.879Z,23.06
2023-03-20T23:15:03.771Z,23.09
2023-03-20T23:17:33.685Z,23.11
2023-03-20T23:20:24.110Z,23.13
2023-03-20T23:22:57.830Z,23.13
2023-03-20T23:28:51.560Z,23.20
2023-03-20T23:31:26.087Z,23.15
2023-03-20T23:37:16.721Z,23.18
2023-03-20T23:39:46.641Z,23.20
2023-03-20T23:42:29.800Z,23.19
2023-03-20T23:44:56.429Z,23.18
2023-03-20T23:47:43.876Z,23.19
2023-03-20T23:50:02.967Z,23.17
2023-03-20T23:53:19.149Z,23.17
2023-03-20T23:55:44.721Z,23.10
